createdAt,value
2023-04-10T00:01:35.735Z,96904.66
2023-04-10T00:04:03.877Z,96907.72
2023-04-10T00:06:32.012Z,96894.38
2023-04-10T00:08:59.913Z,96898.16
2023-04-10T00:11:27.973Z,96886.69
2023-04-10T00:13:57.439Z,96896.09
2023-04-10T00:16:25.310Z,96890.84
2023-04-10T00:18:53.099Z,96891.47
2023-04-10T00:21:20.800Z,96893.34
2023-04-10T00:23:48.503Z,96893.53
2023-04-10T00:26:16.238Z,96891.53
2023-04-10T00:28:43.960Z,96890.09
2023-04-10T00:31:13.189Z,96887.63
2023-04-10T00:33:40.968Z,96888.47
2023-04-10T00:36:09.044Z,96887.25
2023-04-10T00:38:37.945Z,96888.56
2023-04-10T00:41:06.409Z,96887.97
2023-04-10T00:43:34.229Z,96882.66
2023-04-10T00:46:02.217Z,96883.78
2023-04-10T00:48:31.476Z,96887.03
2023-04-10T00:50:59.636Z,96890.22
2023-04-10T00:53:27.643Z,96889.59
2023-04-10T00:55:56.782Z,96881.25
2023-04-10T00:58:24.533Z,96901.53
2023-04-10T01:00:53.011Z,96888.94
2023-04-10T01:03:22.728Z,96883.19
2023-04-10T01:05:58.906Z,96891.31
2023-04-10T01:08:40.754Z,96888.63
2023-04-10T01:11:13.068Z,96891.81
2023-04-10T01:13:46.434Z,96897.63
2023-04-10T01:16:20.383Z,96896.50
2023-04-10T01:18:55.152Z,96898.50
2023-04-10T01:21:25.148Z,96884.06
2023-04-10T01:24:09.026Z,96881.25
2023-04-10T01:26:54.307Z,96878.84
2023-04-10T01:29:28.012Z,96889.25
2023-04-10T01:32:01.920Z,96899.06
2023-04-10T01:34:37.019Z,96888.09
2023-04-10T01:37:09.508Z,96890.38
2023-04-10T01:39:42.631Z,96890.06
2023-04-10T01:42:12.841Z,96886.50
2023-04-10T01:44:43.681Z,96885.06
2023-04-10T01:47:11.413Z,96891.13
2023-04-10T01:49:44.494Z,96882.91
2023-04-10T01:52:13.010Z,96890.03
2023-04-10T01:54:41.351Z,96893.69
2023-04-10T01:57:10.236Z,96897.25
2023-04-10T01:59:39.001Z,96910.09
2023-04-10T02:02:08.609Z,96897.88
2023-04-10T02:04:36.507Z,96890.09
2023-04-10T02:07:05.642Z,96888.91
2023-04-10T02:09:45.289Z,96885.75
2023-04-10T02:12:19.594Z,96891.50
2023-04-10T02:14:48.698Z,96882.44
2023-04-10T02:17:22.376Z,96879.81
2023-04-10T02:19:52.512Z,96887.56
2023-04-10T02:22:20.538Z,96886.53
2023-04-10T02:24:48.547Z,96892.34
2023-04-10T02:27:16.570Z,96880.16
2023-04-10T02:29:44.353Z,96884.00
2023-04-10T02:32:12.138Z,96894.19
2023-04-10T02:34:44.163Z,96895.34
2023-04-10T02:37:11.955Z,96890.13
2023-04-10T02:39:39.651Z,96893.25
2023-04-10T02:42:07.676Z,96890.19
2023-04-10T02:44:35.631Z,96879.63
2023-04-10T02:47:03.559Z,96896.91
2023-04-10T02:49:31.644Z,96890.97
2023-04-10T02:52:00.698Z,96904.84
2023-04-10T02:54:28.649Z,96909.13
2023-04-10T02:56:57.385Z,96914.22
2023-04-10T02:59:25.643Z,96909.50
2023-04-10T03:01:53.452Z,96907.25
2023-04-10T03:04:21.381Z,96906.41
2023-04-10T03:06:49.595Z,96905.69
2023-04-10T03:09:18.677Z,96906.31
2023-04-10T03:11:46.769Z,96910.63
2023-04-10T03:14:14.820Z,96907.31
2023-04-10T03:16:42.602Z,96911.03
2023-04-10T03:19:10.458Z,96903.72
2023-04-10T03:21:38.414Z,96900.97
2023-04-10T03:24:06.759Z,96907.03
2023-04-10T03:26:36.000Z,96898.91
2023-04-10T03:29:03.793Z,96899.03
2023-04-10T03:31:31.881Z,96900.84
2023-04-10T03:34:00.000Z,96892.56
2023-04-10T03:36:28.000Z,96899.19
2023-04-10T03:38:55.859Z,96890.06
2023-04-10T03:41:25.452Z,96889.06
2023-04-10T03:43:55.133Z,96889.97
2023-04-10T03:46:23.189Z,96887.97
2023-04-10T03:48:52.861Z,96892.78
2023-04-10T03:51:21.317Z,96887.59
2023-04-10T03:53:49.050Z,96875.84
2023-04-10T03:56:17.475Z,96891.63
2023-04-10T03:58:45.248Z,96890.66
2023-04-10T04:01:14.790Z,96885.53
2023-04-10T04:03:43.183Z,96886.63
2023-04-10T04:06:11.207Z,96881.28
2023-04-10T04:08:39.341Z,96881.84
2023-04-10T04:11:07.645Z,96876.28
2023-04-10T04:13:35.919Z,96874.13
2023-04-10T04:16:03.704Z,96883.47
2023-04-10T04:18:33.072Z,96882.06
2023-04-10T04:21:00.787Z,96885.16
2023-04-10T04:23:28.604Z,96891.22
2023-04-10T04:25:58.595Z,96881.47
2023-04-10T04:28:27.530Z,96876.69
2023-04-10T04:30:56.682Z,96884.28
2023-04-10T04:33:24.483Z,96891.03
2023-04-10T04:35:53.686Z,96886.38
2023-04-10T04:38:21.444Z,96888.91
2023-04-10T04:40:49.191Z,96886.03
2023-04-10T04:43:16.998Z,96893.78
2023-04-10T04:45:45.047Z,96900.97
2023-04-10T04:48:12.841Z,96903.09
2023-04-10T04:50:41.517Z,96900.78
2023-04-10T04:53:11.288Z,96913.66
2023-04-10T04:55:39.436Z,96909.06
2023-04-10T04:58:07.172Z,96910.34
2023-04-10T05:00:34.953Z,96914.81
2023-04-10T05:03:02.979Z,96898.13
2023-04-10T05:05:30.965Z,96923.03
2023-04-10T05:07:58.694Z,96916.28
2023-04-10T05:10:27.963Z,96921.41
2023-04-10T05:12:55.695Z,96915.13
2023-04-10T05:15:24.053Z,96915.50
2023-04-10T05:17:53.159Z,96908.25
2023-04-10T05:20:22.166Z,96918.25
2023-04-10T05:22:53.054Z,96910.41
2023-04-10T05:25:21.286Z,96913.41
2023-04-10T05:27:50.677Z,96912.63
2023-04-10T05:30:18.577Z,96916.25
2023-04-10T05:32:46.985Z,96908.50
2023-04-10T05:35:14.860Z,96905.53
2023-04-10T05:37:42.610Z,96910.53
2023-04-10T05:40:11.516Z,96919.03
2023-04-10T05:42:39.259Z,96920.31
2023-04-10T05:45:09.507Z,96909.19
2023-04-10T05:47:37.358Z,96917.09
2023-04-10T05:50:05.698Z,96913.00
2023-04-10T05:52:33.770Z,96914.78
2023-04-10T05:55:01.808Z,96908.84
2023-04-10T05:57:30.819Z,96901.03
2023-04-10T05:59:58.545Z,96915.09
2023-04-10T06:02:28.151Z,96914.97
2023-04-10T06:04:56.347Z,96907.81
2023-04-10T06:07:24.406Z,96915.34
2023-04-10T06:09:52.152Z,96915.16
2023-04-10T06:12:19.875Z,96916.72
2023-04-10T06:14:48.517Z,96918.31
2023-04-10T06:17:16.282Z,96923.28
2023-04-10T06:19:45.755Z,96924.53
2023-04-10T06:22:13.502Z,96920.94
2023-04-10T06:24:41.372Z,96922.25
2023-04-10T06:27:09.270Z,96922.25
2023-04-10T06:29:37.486Z,96919.97
2023-04-10T06:32:05.328Z,96921.81
2023-04-10T06:34:33.072Z,96924.84
2023-04-10T06:37:02.200Z,96923.34
2023-04-10T06:39:31.304Z,96914.16
2023-04-10T06:41:59.368Z,96921.03
2023-04-10T06:44:27.478Z,96921.75
2023-04-10T06:46:55.489Z,96922.53
2023-04-10T06:49:24.243Z,96919.44
2023-04-10T06:51:52.082Z,96911.72
2023-04-10T06:54:21.701Z,96908.44
2023-04-10T06:56:49.607Z,96911.13
2023-04-10T06:59:17.715Z,96905.97
2023-04-10T07:01:45.778Z,96906.78
2023-04-10T07:04:13.814Z,96899.38
2023-04-10T07:06:41.933Z,96895.22
2023-04-10T07:09:09.651Z,96895.59
2023-04-10T07:11:40.331Z,96889.50
2023-04-10T07:14:08.121Z,96895.31
2023-04-10T07:16:36.224Z,96895.84
2023-04-10T07:19:06.690Z,96901.22
2023-04-10T07:21:34.610Z,96911.25
2023-04-10T07:24:02.732Z,96909.41
2023-04-10T07:26:30.562Z,96907.69
2023-04-10T07:29:00.022Z,96903.91
2023-04-10T07:31:28.005Z,96895.53
2023-04-10T07:33:55.888Z,96902.84
2023-04-10T07:36:23.716Z,96894.56
2023-04-10T07:38:51.500Z,96894.38
2023-04-10T07:41:19.300Z,96894.97
2023-04-10T07:43:47.821Z,96897.88
2023-04-10T07:46:17.766Z,96892.78
2023-04-10T07:48:47.187Z,96901.66
2023-04-10T07:51:14.912Z,96894.47
2023-04-10T07:53:43.004Z,96899.25
2023-04-10T07:56:17.245Z,96898.47
2023-04-10T07:58:45.075Z,96901.81
2023-04-10T08:01:13.455Z,96902.28
2023-04-10T08:03:43.838Z,96892.63
2023-04-10T08:06:12.892Z,96899.16
2023-04-10T08:08:42.198Z,96897.78
2023-04-10T08:11:24.796Z,96897.47
2023-04-10T08:13:52.837Z,96884.69
2023-04-10T08:16:24.055Z,96899.47
2023-04-10T08:18:53.725Z,96896.28
2023-04-10T08:21:23.349Z,96897.44
2023-04-10T08:23:52.001Z,96901.25
2023-04-10T08:26:21.248Z,96891.84
2023-04-10T08:28:50.974Z,96886.97
2023-04-10T08:31:19.173Z,96892.47
2023-04-10T08:33:47.572Z,96889.81
2023-04-10T08:36:19.818Z,96895.34
2023-04-10T08:38:49.197Z,96883.53
2023-04-10T08:41:19.292Z,96891.88
2023-04-10T08:43:47.186Z,96891.81
2023-04-10T08:46:15.529Z,96887.56
2023-04-10T08:48:48.987Z,96895.31
2023-04-10T08:51:26.023Z,96900.47
2023-04-10T08:53:59.610Z,96891.16
2023-04-10T08:56:28.442Z,96901.31
2023-04-10T08:58:56.716Z,96890.22
2023-04-10T09:01:25.588Z,96897.56
2023-04-10T09:03:53.595Z,96882.34
2023-04-10T09:06:23.077Z,96875.63
2023-04-10T09:08:50.761Z,96875.16
2023-04-10T09:11:18.518Z,96873.91
2023-04-10T09:13:46.481Z,96875.81
2023-04-10T09:16:15.984Z,96868.53
2023-04-10T09:18:45.926Z,96874.94
2023-04-10T09:21:15.758Z,96872.78
2023-04-10T09:23:46.412Z,96869.19
2023-04-10T09:26:25.348Z,96857.19
2023-04-10T09:29:04.115Z,96861.38
2023-04-10T09:31:34.523Z,96867.53
2023-04-10T09:34:10.692Z,96856.63
2023-04-10T09:36:38.958Z,96858.09
2023-04-10T09:39:09.321Z,96862.53
2023-04-10T09:41:47.709Z,96864.72
2023-04-10T09:44:15.531Z,96856.84
2023-04-10T09:46:43.693Z,96861.06
2023-04-10T09:49:12.644Z,96842.25
2023-04-10T09:51:40.596Z,96825.78
2023-04-10T09:54:09.815Z,96841.41
2023-04-10T09:56:40.766Z,96839.88
2023-04-10T09:59:09.486Z,96835.09
2023-04-10T10:01:41.186Z,96834.63
2023-04-10T10:04:09.258Z,96826.50
2023-04-10T10:06:40.269Z,96817.47
2023-04-10T10:09:10.034Z,96818.84
2023-04-10T10:11:37.910Z,96815.13
2023-04-10T10:14:13.607Z,96799.59
2023-04-10T10:16:47.333Z,96795.84
2023-04-10T10:19:21.177Z,96804.75
2023-04-10T10:21:49.850Z,96797.97
2023-04-10T10:24:21.272Z,96792.47
2023-04-10T10:26:49.956Z,96788.78
2023-04-10T10:29:18.834Z,96785.66
2023-04-10T10:31:48.233Z,96786.09
2023-04-10T10:34:17.209Z,96777.38
2023-04-10T10:36:44.966Z,96786.81
2023-04-10T10:39:30.381Z,96779.97
2023-04-10T10:42:07.507Z,96769.78
2023-04-10T10:44:46.792Z,96758.97
2023-04-10T10:47:19.046Z,96755.81
2023-04-10T10:49:54.433Z,96758.19
2023-04-10T10:52:41.946Z,96744.53
2023-04-10T10:55:35.792Z,96747.56
2023-04-10T10:58:06.152Z,96738.47
2023-04-10T11:01:13.439Z,96732.19
2023-04-10T11:03:41.856Z,96731.00
2023-04-10T11:06:12.643Z,96731.41
2023-04-10T11:08:46.037Z,96742.22
2023-04-10T11:11:20.277Z,96732.13
2023-04-10T11:14:18.388Z,96727.50
2023-04-10T11:16:48.143Z,96725.16
2023-04-10T11:19:19.275Z,96727.69
2023-04-10T11:22:07.527Z,96727.03
2023-04-10T11:24:59.066Z,96740.41
2023-04-10T11:27:49.107Z,96729.00
2023-04-10T11:30:31.156Z,96720.84
2023-04-10T11:33:00.572Z,96727.03
2023-04-10T11:35:29.174Z,96724.34
2023-04-10T11:38:13.514Z,96715.75
2023-04-10T11:40:58.578Z,96723.31
2023-04-10T11:43:27.874Z,96710.38
2023-04-10T11:46:03.628Z,96708.47
2023-04-10T11:48:31.785Z,96713.63
2023-04-10T11:51:01.658Z,96710.31
2023-04-10T11:53:30.293Z,96706.72
2023-04-10T11:55:58.711Z,96715.72
2023-04-10T11:58:29.953Z,96707.47
2023-04-10T12:01:01.529Z,96704.09
2023-04-10T12:03:33.614Z,96704.50
2023-04-10T12:06:01.669Z,96696.06
2023-04-10T12:08:32.999Z,96702.84
2023-04-10T12:11:00.932Z,96696.94
2023-04-10T12:13:31.184Z,96693.91
2023-04-10T12:16:00.480Z,96689.19
2023-04-10T12:18:29.138Z,96688.13
2023-04-10T12:20:57.749Z,96678.25
2023-04-10T12:23:26.198Z,96680.56
2023-04-10T12:26:06.712Z,96673.16
2023-04-10T12:28:36.887Z,96665.75
2023-04-10T12:31:05.232Z,96667.03
2023-04-10T12:33:33.252Z,96666.88
2023-04-10T12:36:01.581Z,96663.66
2023-04-10T12:38:43.944Z,96666.22
2023-04-10T12:41:12.762Z,96643.69
2023-04-10T12:43:44.859Z,96662.09
2023-04-10T12:46:24.862Z,96660.44
2023-04-10T12:48:53.027Z,96652.72
2023-04-10T12:51:20.977Z,96645.09
2023-04-10T12:53:48.859Z,96638.84
2023-04-10T12:56:18.234Z,96628.91
2023-04-10T12:58:47.904Z,96636.72
2023-04-10T13:01:15.733Z,96620.75
2023-04-10T13:03:43.718Z,96630.44
2023-04-10T13:06:11.629Z,96638.69
2023-04-10T13:08:39.380Z,96627.84
2023-04-10T13:11:07.379Z,96617.59
2023-04-10T13:13:35.555Z,96620.34
2023-04-10T13:16:04.829Z,96620.66
2023-04-10T13:18:32.691Z,96620.28
2023-04-10T13:21:00.541Z,96616.81
2023-04-10T13:23:28.395Z,96616.91
2023-04-10T13:25:56.813Z,96612.78
2023-04-10T13:28:24.699Z,96608.63
2023-04-10T13:30:52.504Z,96597.06
2023-04-10T13:33:22.195Z,96606.44
2023-04-10T13:35:50.004Z,96601.06
2023-04-10T13:38:19.830Z,96598.34
2023-04-10T13:40:48.520Z,96599.97
2023-04-10T13:43:16.345Z,96605.25
2023-04-10T13:45:44.113Z,96601.13
2023-04-10T13:48:11.914Z,96592.44
2023-04-10T13:50:41.139Z,96598.66
2023-04-10T13:53:10.301Z,96598.56
2023-04-10T13:55:38.936Z,96592.56
2023-04-10T13:58:07.429Z,96594.91
2023-04-10T14:00:35.280Z,96595.47
2023-04-10T14:03:03.675Z,96581.06
2023-04-10T14:05:31.612Z,96584.81
2023-04-10T14:08:01.097Z,96585.75
2023-04-10T14:10:29.272Z,96584.69
2023-04-10T14:12:57.405Z,96585.09
2023-04-10T14:15:25.239Z,96575.16
2023-04-10T14:17:52.978Z,96581.38
2023-04-10T14:20:21.066Z,96577.22
2023-04-10T14:22:49.425Z,96571.38
2023-04-10T14:25:18.866Z,96565.94
2023-04-10T14:27:46.995Z,96567.09
2023-04-10T14:30:14.914Z,96564.44
2023-04-10T14:32:43.868Z,96561.41
2023-04-10T14:35:12.197Z,96557.19
2023-04-10T14:37:40.108Z,96557.56
2023-04-10T14:40:09.085Z,96553.06
2023-04-10T14:42:38.175Z,96564.66
2023-04-10T14:45:06.640Z,96555.56
2023-04-10T14:47:35.993Z,96556.38
2023-04-10T14:50:04.072Z,96552.84
2023-04-10T14:52:31.831Z,96556.31
2023-04-10T14:54:59.794Z,96546.66
2023-04-10T14:57:29.829Z,96546.75
2023-04-10T15:00:01.232Z,96548.44
2023-04-10T15:02:30.141Z,96531.28
2023-04-10T15:04:58.028Z,96533.91
2023-04-10T15:07:27.622Z,96534.56
2023-04-10T15:09:57.873Z,96539.50
2023-04-10T15:12:25.846Z,96541.13
2023-04-10T15:14:53.948Z,96529.19
2023-04-10T15:17:24.666Z,96533.44
2023-04-10T15:19:52.549Z,96530.78
2023-04-10T15:22:20.387Z,96521.47
2023-04-10T15:24:50.788Z,96524.63
2023-04-10T15:27:21.249Z,96517.75
2023-04-10T15:29:49.667Z,96513.97
2023-04-10T15:32:17.620Z,96515.56
2023-04-10T15:34:46.742Z,96509.97
2023-04-10T15:37:14.483Z,96511.19
2023-04-10T15:39:42.343Z,96509.63
2023-04-10T15:42:10.172Z,96460.53
2023-04-10T15:44:37.914Z,96507.41
2023-04-10T15:47:05.746Z,96500.88
2023-04-10T15:49:37.636Z,96505.81
2023-04-10T15:52:07.911Z,96505.78
2023-04-10T15:54:35.781Z,96493.81
2023-04-10T15:57:05.035Z,96503.38
2023-04-10T15:59:33.827Z,96503.38
2023-04-10T16:02:01.682Z,96507.03
2023-04-10T16:04:30.066Z,96499.44
2023-04-10T16:06:58.096Z,96497.25
2023-04-10T16:09:27.344Z,96494.75
2023-04-10T16:11:56.099Z,96501.78
2023-04-10T16:14:24.072Z,96500.59
2023-04-10T16:16:51.999Z,96503.69
2023-04-10T16:19:19.845Z,96494.75
2023-04-10T16:21:47.586Z,96497.47
2023-04-10T16:24:15.484Z,96492.00
2023-04-10T16:26:44.643Z,96491.63
2023-04-10T16:29:12.411Z,96502.94
2023-04-10T16:31:40.367Z,96492.09
2023-04-10T16:34:08.525Z,96491.69
2023-04-10T16:36:36.331Z,96489.53
2023-04-10T16:39:04.343Z,96487.13
2023-04-10T16:41:32.270Z,96477.44
2023-04-10T16:44:01.355Z,96474.22
2023-04-10T16:46:29.201Z,96473.69
2023-04-10T16:48:57.352Z,96472.81
2023-04-10T16:51:25.647Z,96469.59
2023-04-10T16:53:53.631Z,96472.88
2023-04-10T16:56:21.468Z,96472.38
2023-04-10T16:58:49.526Z,96471.03
2023-04-10T17:01:21.068Z,96479.69
2023-04-10T17:03:49.342Z,96474.00
2023-04-10T17:06:17.551Z,96475.06
2023-04-10T17:08:45.644Z,96472.94
2023-04-10T17:11:13.791Z,96468.06
2023-04-10T17:13:42.130Z,96471.50
2023-04-10T17:16:10.742Z,96473.38
2023-04-10T17:18:39.929Z,96472.28
2023-04-10T17:21:11.865Z,96474.75
2023-04-10T17:23:39.761Z,96474.47
2023-04-10T17:26:08.059Z,96455.56
2023-04-10T17:28:35.958Z,96466.84
2023-04-10T17:31:03.685Z,96465.75
2023-04-10T17:33:31.528Z,96471.88
2023-04-10T17:36:00.672Z,96462.41
2023-04-10T17:38:28.560Z,96467.16
2023-04-10T17:40:56.343Z,96461.19
2023-04-10T17:43:24.096Z,96455.25
2023-04-10T17:45:51.896Z,96455.19
2023-04-10T17:48:19.778Z,96461.06
2023-04-10T17:50:48.152Z,96453.03
2023-04-10T17:53:17.282Z,96454.31
2023-04-10T17:55:45.649Z,96453.25
2023-04-10T17:58:13.458Z,96460.84
2023-04-10T18:00:42.883Z,96457.66
2023-04-10T18:03:11.109Z,96465.47
2023-04-10T18:05:39.748Z,96456.16
2023-04-10T18:08:08.745Z,96459.88
2023-04-10T18:10:38.044Z,96461.22
2023-04-10T18:13:05.749Z,96461.47
2023-04-10T18:15:33.598Z,96456.16
2023-04-10T18:18:01.392Z,96448.09
2023-04-10T18:20:29.172Z,96444.25
2023-04-10T18:22:57.040Z,96440.88
2023-04-10T18:25:24.852Z,96442.53
2023-04-10T18:28:13.074Z,96435.84
2023-04-10T18:30:41.986Z,96437.06
2023-04-10T18:33:11.253Z,96453.06
2023-04-10T18:35:39.546Z,96451.88
2023-04-10T18:38:07.539Z,96447.69
2023-04-10T18:40:36.860Z,96444.53
2023-04-10T18:43:06.368Z,96449.28
2023-04-10T18:45:36.448Z,96455.31
2023-04-10T18:48:04.377Z,96456.22
2023-04-10T18:50:35.098Z,96440.75
2023-04-10T18:53:05.990Z,96463.47
2023-04-10T18:55:33.790Z,96460.97
2023-04-10T18:58:01.579Z,96454.16
2023-04-10T19:00:31.992Z,96465.41
2023-04-10T19:03:00.122Z,96470.34
2023-04-10T19:05:28.095Z,96465.53
2023-04-10T19:08:03.744Z,96472.66
2023-04-10T19:10:32.537Z,96454.84
2023-04-10T19:13:00.539Z,96460.41
2023-04-10T19:15:28.293Z,96453.03
2023-04-10T19:17:57.555Z,96452.03
2023-04-10T19:20:51.230Z,96458.25
2023-04-10T19:23:13.194Z,96451.13
2023-04-10T19:25:41.000Z,96466.41
2023-04-10T19:28:08.751Z,96484.53
2023-04-10T19:30:36.463Z,96481.97
2023-04-10T19:33:05.728Z,96492.00
2023-04-10T19:35:33.706Z,96491.22
2023-04-10T19:38:01.532Z,96504.34
2023-04-10T19:40:31.512Z,96499.47
2023-04-10T19:43:00.495Z,96497.91
2023-04-10T19:45:29.221Z,96491.34
2023-04-10T19:47:57.766Z,96498.88
2023-04-10T19:50:29.420Z,96493.97
2023-04-10T19:52:57.221Z,96486.97
2023-04-10T19:55:25.123Z,96483.13
2023-04-10T19:57:52.913Z,96477.59
2023-04-10T20:00:20.700Z,96483.16
2023-04-10T20:02:48.524Z,96483.22
2023-04-10T20:05:16.512Z,96492.84
2023-04-10T20:07:46.060Z,96496.66
2023-04-10T20:10:13.857Z,96494.59
2023-04-10T20:12:41.634Z,96479.81
2023-04-10T20:15:10.578Z,96487.47
2023-04-10T20:17:39.048Z,96496.50
2023-04-10T20:20:07.980Z,96506.28
2023-04-10T20:22:35.733Z,96495.00
2023-04-10T20:25:05.217Z,96506.34
2023-04-10T20:27:32.982Z,96494.53
2023-04-10T20:30:00.746Z,96503.66
2023-04-10T20:32:28.593Z,96491.41
2023-04-10T20:34:56.464Z,96494.38
2023-04-10T20:37:24.217Z,96514.06
2023-04-10T20:39:52.159Z,96518.63
2023-04-10T20:42:23.304Z,96527.25
2023-04-10T20:44:51.080Z,96521.25
2023-04-10T20:47:20.327Z,96527.75
2023-04-10T20:49:48.101Z,96533.44
2023-04-10T20:52:15.899Z,96541.94
2023-04-10T20:54:43.936Z,96522.00
2023-04-10T20:57:12.135Z,96508.13
2023-04-10T20:59:41.346Z,96499.25
2023-04-10T21:02:14.482Z,96503.53
2023-04-10T21:04:44.781Z,96496.00
2023-04-10T21:07:13.119Z,96498.84
2023-04-10T21:09:41.024Z,96490.63
2023-04-10T21:12:08.960Z,96494.47
2023-04-10T21:14:36.827Z,96518.69
2023-04-10T21:17:06.094Z,96515.25
2023-04-10T21:19:33.972Z,96519.63
2023-04-10T21:22:01.805Z,96508.84
2023-04-10T21:24:29.691Z,96505.25
2023-04-10T21:26:57.541Z,96505.19
2023-04-10T21:29:25.709Z,96502.56
2023-04-10T21:31:53.544Z,96510.44
2023-04-10T21:34:23.386Z,96526.00
2023-04-10T21:36:51.210Z,96522.03
2023-04-10T21:39:19.009Z,96506.75
2023-04-10T21:41:46.731Z,96510.44
2023-04-10T21:44:14.493Z,96512.94
2023-04-10T21:46:42.555Z,96520.59
2023-04-10T21:49:10.408Z,96510.97
2023-04-10T21:51:40.443Z,96498.19
2023-04-10T21:54:08.275Z,96487.44
2023-04-10T21:56:38.591Z,96480.00
2023-04-10T21:59:06.726Z,96461.28
2023-04-10T22:01:34.779Z,96457.94
2023-04-10T22:04:03.322Z,96454.31
2023-04-10T22:06:31.531Z,96452.84
2023-04-10T22:09:00.680Z,96443.66
2023-04-10T22:11:28.538Z,96432.59
2023-04-10T22:13:58.155Z,96441.69
2023-04-10T22:16:28.223Z,96443.09
2023-04-10T22:18:56.466Z,96430.81
2023-04-10T22:21:25.126Z,96421.50
2023-04-10T22:23:52.924Z,96423.44
2023-04-10T22:26:22.197Z,96407.63
2023-04-10T22:28:49.932Z,96412.53
2023-04-10T22:31:18.295Z,96396.25
2023-04-10T22:33:46.582Z,96405.78
2023-04-10T22:36:14.425Z,96395.25
2023-04-10T22:38:42.173Z,96402.84
2023-04-10T22:41:10.858Z,96386.88
2023-04-10T22:43:40.010Z,96394.38
2023-04-10T22:46:08.334Z,96393.72
2023-04-10T22:48:36.160Z,96401.44
2023-04-10T22:51:04.295Z,96400.25
2023-04-10T22:53:32.046Z,96381.38
2023-04-10T22:55:59.880Z,96394.50
2023-04-10T22:58:27.621Z,96370.25
2023-04-10T23:00:56.762Z,96393.94
2023-04-10T23:03:24.746Z,96397.06
2023-04-10T23:05:52.766Z,96393.31
2023-04-10T23:08:20.559Z,96391.81
2023-04-10T23:10:48.399Z,96388.28
2023-04-10T23:13:16.468Z,96387.22
2023-04-10T23:15:50.034Z,96375.44
2023-04-10T23:18:19.961Z,96385.41
2023-04-10T23:20:47.868Z,96369.50
2023-04-10T23:23:16.234Z,96345.22
2023-04-10T23:25:44.026Z,96329.34
2023-04-10T23:28:11.752Z,96316.91
2023-04-10T23:30:42.086Z,96321.88
2023-04-10T23:33:09.835Z,96319.16
2023-04-10T23:35:38.965Z,96312.91
2023-04-10T23:38:06.815Z,96304.47
2023-04-10T23:40:34.725Z,96303.91
2023-04-10T23:43:02.769Z,96289.91
2023-04-10T23:45:30.589Z,96267.31
2023-04-10T23:47:58.648Z,96249.19
2023-04-10T23:50:27.428Z,96250.13
2023-04-10T23:52:56.668Z,96245.19
2023-04-10T23:55:24.461Z,96255.91
2023-04-10T23:57:52.243Z,96270.34
